createdAt,value
2022-12-08T15:00:50.430Z,1190.00
2022-12-08T15:01:22.991Z,1228.00
2022-12-08T15:01:53.111Z,1235.00
2022-12-08T15:02:23.135Z,1232.00
2022-12-08T15:02:55.641Z,1227.00
2022-12-08T15:03:28.169Z,1228.00
2022-12-08T15:04:00.678Z,1226.00
2022-12-08T15:04:33.232Z,1224.00
2022-12-08T15:05:03.351Z,1226.00
2022-12-08T15:05:33.333Z,1231.00
2022-12-08T15:06:05.843Z,1232.00
2022-12-08T15:06:38.359Z,1235.00
2022-12-08T15:07:10.884Z,1246.00
2022-12-08T15:07:43.444Z,1251.00
2022-12-08T15:08:13.485Z,1248.00
2022-12-08T15:08:43.475Z,1242.00
2022-12-08T15:09:16.005Z,1241.00
2022-12-08T15:09:48.523Z,1243.00
2022-12-08T15:10:21.048Z,1242.00
2022-12-08T15:10:53.558Z,1243.00
2022-12-08T15:11:26.060Z,1245.00
2022-12-08T15:11:58.560Z,1247.00
2022-12-08T15:12:31.219Z,1248.00
2022-12-08T15:13:01.245Z,1248.00
2022-12-08T15:13:31.210Z,1248.00
2022-12-08T15:14:03.709Z,1246.00
2022-12-08T15:14:36.231Z,1243.00
2022-12-08T15:15:08.749Z,1242.00
2022-12-08T15:15:47.359Z,1238.00
2022-12-08T15:16:12.303Z,1233.00
2022-12-08T15:16:42.477Z,1233.00
2022-12-08T15:17:12.449Z,1230.00
2022-12-08T15:17:45.016Z,1224.00
2022-12-08T15:18:15.956Z,1220.00
2022-12-08T15:18:45.944Z,1218.00
2022-12-08T15:19:18.471Z,1217.00
2022-12-08T15:19:50.995Z,1219.00
2022-12-08T15:20:23.532Z,1217.00
2022-12-08T15:20:56.095Z,1217.00
2022-12-08T15:21:26.098Z,1218.00
2022-12-08T15:21:58.664Z,1218.00
2022-12-08T15:22:28.624Z,1222.00
2022-12-08T15:23:01.189Z,1221.00
2022-12-08T15:23:31.201Z,1221.00
2022-12-08T15:24:03.713Z,1222.00
2022-12-08T15:24:36.225Z,1222.00
2022-12-08T15:25:08.740Z,1226.00
2022-12-08T15:25:41.283Z,1227.00
2022-12-08T15:26:13.813Z,1227.00
2022-12-08T15:26:46.325Z,1226.00
2022-12-08T15:27:18.864Z,1224.00
2022-12-08T15:27:50.796Z,1226.00
2022-12-08T15:28:23.988Z,1226.00
2022-12-08T15:28:53.320Z,1225.00
2022-12-08T15:29:25.851Z,1225.00
2022-12-08T15:29:55.854Z,1225.00
2022-12-08T15:30:28.415Z,1224.00
2022-12-08T15:30:58.561Z,1223.00
2022-12-08T15:31:28.738Z,1219.00
2022-12-08T15:31:58.781Z,1218.00
2022-12-08T15:32:28.795Z,1218.00
2022-12-08T15:33:01.302Z,1218.00
2022-12-08T15:33:33.849Z,1217.00
2022-12-08T15:34:03.838Z,1219.00
2022-12-08T15:34:36.342Z,1218.00
2022-12-08T15:35:08.850Z,1220.00
2022-12-08T15:35:41.381Z,1219.00
2022-12-08T15:36:13.890Z,1215.00
2022-12-08T15:36:46.410Z,1215.00
2022-12-08T15:37:18.910Z,1214.00
2022-12-08T15:37:51.427Z,1214.00
2022-12-08T15:38:23.940Z,1213.00
2022-12-08T15:38:56.464Z,1291.00
2022-12-08T15:39:28.993Z,1303.00
2022-12-08T15:40:01.557Z,1296.00
2022-12-08T15:40:31.523Z,1287.00
2022-12-08T15:41:04.081Z,1278.00
2022-12-08T15:41:34.036Z,1271.00
2022-12-08T15:42:06.588Z,1261.00
2022-12-08T15:42:36.557Z,1250.00
2022-12-08T15:43:09.080Z,1244.00
2022-12-08T15:43:41.617Z,1242.00
2022-12-08T15:44:14.180Z,1238.00
2022-12-08T15:44:44.154Z,1237.00
2022-12-08T15:45:16.669Z,1237.00
2022-12-08T15:45:58.419Z,1234.00
2022-12-08T15:46:21.612Z,1234.00
2022-12-08T15:46:51.647Z,1235.00
2022-12-08T15:47:21.690Z,1236.00
2022-12-08T15:47:51.645Z,1236.00
2022-12-08T15:48:24.162Z,1240.00
2022-12-08T15:48:58.355Z,1239.00
2022-12-08T15:49:28.416Z,1240.00
2022-12-08T15:49:58.403Z,1243.00
2022-12-08T15:50:30.921Z,1243.00
2022-12-08T15:51:03.441Z,1242.00
2022-12-08T15:51:35.966Z,1245.00
2022-12-08T15:52:11.836Z,1245.00
2022-12-08T15:52:39.454Z,1245.00
2022-12-08T15:53:11.992Z,1245.00
2022-12-08T15:53:44.554Z,1246.00
2022-12-08T15:54:14.577Z,1245.00
2022-12-08T15:54:47.100Z,1245.00
2022-12-08T15:55:19.602Z,1241.00
2022-12-08T15:56:28.187Z,1239.00
2022-12-08T15:57:18.602Z,1238.00
2022-12-08T15:58:52.568Z,1236.00
2022-12-08T15:58:58.910Z,1237.00
2022-12-08T15:59:06.214Z,1236.00
2022-12-08T15:59:38.717Z,1236.00
2022-12-08T16:00:30.367Z,1236.00
2022-12-08T16:00:55.691Z,1235.00
2022-12-08T16:01:15.845Z,1236.00
2022-12-08T16:01:45.841Z,1235.00
2022-12-08T16:02:22.235Z,1236.00
2022-12-08T16:03:18.521Z,1239.00
2022-12-08T16:04:13.854Z,1241.00
2022-12-08T16:05:49.874Z,673.00
2022-12-08T16:07:22.667Z,632.00
2022-12-08T16:07:29.757Z,620.00
2022-12-08T16:08:04.552Z,611.00
2022-12-08T16:08:46.292Z,606.00
2022-12-08T16:09:13.211Z,600.00
2022-12-08T16:09:37.100Z,596.00
2022-12-08T16:10:08.014Z,593.00
2022-12-08T16:11:23.798Z,590.00
2022-12-08T16:12:04.760Z,591.00
2022-12-08T16:12:11.080Z,591.00
2022-12-08T16:12:18.433Z,591.00
2022-12-08T16:13:48.191Z,590.00
2022-12-08T16:14:33.613Z,590.00
2022-12-08T16:16:00.864Z,599.00
2022-12-08T16:16:06.123Z,602.00
2022-12-08T16:16:23.439Z,609.00
2022-12-08T16:16:55.983Z,617.00
2022-12-08T16:17:25.986Z,632.00
2022-12-08T16:17:58.498Z,649.00
2022-12-08T16:18:31.010Z,673.00
2022-12-08T16:19:03.607Z,695.00
2022-12-08T16:19:33.577Z,708.00
2022-12-08T16:20:06.404Z,717.00
2022-12-08T16:21:06.548Z,730.00
2022-12-08T16:21:41.868Z,1621.00
2022-12-08T16:23:07.905Z,798.00
2022-12-08T16:23:34.719Z,784.00
2022-12-08T16:23:46.643Z,777.00
2022-12-08T16:24:11.605Z,766.00
2022-12-08T16:24:41.547Z,761.00
2022-12-08T16:25:18.802Z,759.00
2022-12-08T16:26:16.133Z,754.00
2022-12-08T16:27:35.101Z,751.00
2022-12-08T16:28:02.828Z,747.00
2022-12-08T16:28:36.759Z,734.00
2022-12-08T16:28:57.097Z,727.00
2022-12-08T16:29:09.292Z,722.00
2022-12-08T16:29:41.841Z,688.00
2022-12-08T16:30:14.405Z,737.00
2022-12-08T16:30:44.408Z,744.00
2022-12-08T16:31:17.648Z,736.00
2022-12-08T16:31:46.803Z,735.00
2022-12-08T16:32:16.940Z,732.00
2022-12-08T16:32:46.939Z,726.00
2022-12-08T16:33:19.447Z,724.00
2022-12-08T16:33:51.957Z,721.00
2022-12-08T16:34:24.467Z,722.00
2022-12-08T16:34:56.952Z,722.00
2022-12-08T16:35:29.479Z,721.00
2022-12-08T16:36:01.989Z,719.00
2022-12-08T16:36:34.496Z,719.00
2022-12-08T16:37:06.985Z,718.00
2022-12-08T16:37:39.502Z,717.00
2022-12-08T16:38:12.004Z,717.00
2022-12-08T16:38:44.513Z,717.00
2022-12-08T16:39:17.080Z,717.00
2022-12-08T16:39:47.130Z,716.00
2022-12-08T16:40:17.141Z,715.00
2022-12-08T16:40:49.702Z,716.00
2022-12-08T16:41:19.704Z,718.00
2022-12-08T16:41:52.235Z,718.00
2022-12-08T16:42:24.731Z,719.00
2022-12-08T16:42:57.328Z,721.00
2022-12-08T16:43:27.296Z,722.00
2022-12-08T16:43:59.862Z,721.00
2022-12-08T16:44:29.822Z,721.00
2022-12-08T16:45:02.668Z,726.00
2022-12-08T16:45:32.823Z,730.00
2022-12-08T16:46:02.911Z,737.00
2022-12-08T16:46:32.953Z,771.00
2022-12-08T16:47:02.954Z,772.00
2022-12-08T16:47:32.957Z,771.00
2022-12-08T16:48:05.521Z,773.00
2022-12-08T16:48:35.521Z,773.00
2022-12-08T16:49:08.087Z,775.00
2022-12-08T16:49:38.055Z,778.00
2022-12-08T16:50:10.569Z,779.00
2022-12-08T16:50:43.080Z,782.00
2022-12-08T16:51:15.595Z,835.00
2022-12-08T16:51:48.134Z,810.00
2022-12-08T16:52:20.663Z,811.00
2022-12-08T16:52:53.177Z,815.00
2022-12-08T16:53:25.695Z,835.00
2022-12-08T16:53:58.176Z,841.00
2022-12-08T16:54:30.667Z,803.00
2022-12-08T16:55:03.635Z,770.00
2022-12-08T16:55:33.832Z,758.00
2022-12-08T16:56:06.357Z,752.00
2022-12-08T16:56:38.879Z,745.00
2022-12-08T16:57:11.412Z,749.00
2022-12-08T16:57:41.391Z,753.00
2022-12-08T16:58:13.950Z,757.00
2022-12-08T16:58:43.910Z,761.00
2022-12-08T16:59:16.455Z,767.00
2022-12-08T16:59:46.426Z,768.00
2022-12-08T17:00:18.920Z,770.00
2022-12-08T17:00:51.488Z,768.00
2022-12-08T17:01:21.585Z,767.00
2022-12-08T17:01:51.591Z,768.00
2022-12-08T17:02:24.123Z,768.00
2022-12-08T17:02:56.622Z,768.00
2022-12-08T17:03:29.183Z,767.00
2022-12-08T17:04:33.853Z,763.00
2022-12-08T17:05:03.999Z,763.00
2022-12-08T17:05:34.069Z,763.00
2022-12-08T17:06:04.112Z,762.00
2022-12-08T17:06:34.115Z,761.00
2022-12-08T17:07:06.682Z,761.00
2022-12-08T17:07:36.651Z,761.00
2022-12-08T17:08:09.208Z,764.00
2022-12-08T17:08:39.208Z,762.00
2022-12-08T17:09:11.713Z,763.00
2022-12-08T17:09:44.228Z,764.00
2022-12-08T17:10:16.750Z,765.00
2022-12-08T17:10:49.300Z,763.00
2022-12-08T17:11:21.863Z,759.00
2022-12-08T17:11:51.824Z,759.00
2022-12-08T17:12:24.340Z,761.00
2022-12-08T17:12:56.891Z,761.00
2022-12-08T17:13:29.455Z,762.00
2022-12-08T17:13:59.458Z,760.00
2022-12-08T17:14:31.983Z,764.00
2022-12-08T17:15:04.825Z,765.00
2022-12-08T17:15:35.103Z,766.00
2022-12-08T17:16:07.672Z,766.00
2022-12-08T17:16:37.697Z,768.00
2022-12-08T17:17:07.697Z,769.00
2022-12-08T17:17:40.202Z,769.00
2022-12-08T17:18:12.713Z,769.00
2022-12-08T17:18:45.261Z,772.00
2022-12-08T17:19:17.784Z,774.00
2022-12-08T17:19:50.292Z,777.00
2022-12-08T17:20:22.851Z,776.00
2022-12-08T17:20:52.802Z,780.00
2022-12-08T17:21:25.317Z,784.00
2022-12-08T17:21:57.887Z,792.00
2022-12-08T17:22:27.880Z,804.00
2022-12-08T17:22:57.888Z,822.00
2022-12-08T17:23:30.403Z,836.00
2022-12-08T17:24:02.913Z,843.00
2022-12-08T17:24:35.429Z,846.00
2022-12-08T17:25:07.965Z,852.00
2022-12-08T17:25:40.495Z,857.00
2022-12-08T17:26:13.071Z,861.00
2022-12-08T17:26:43.063Z,864.00
2022-12-08T17:27:15.628Z,870.00
2022-12-08T17:27:45.631Z,871.00
2022-12-08T17:28:31.191Z,870.00
2022-12-08T17:29:01.172Z,877.00
2022-12-08T17:29:21.072Z,884.00
2022-12-08T17:29:53.587Z,886.00
2022-12-08T17:30:26.099Z,886.00
2022-12-08T17:30:58.609Z,885.00
2022-12-08T17:31:31.770Z,885.00
2022-12-08T17:32:02.214Z,888.00
2022-12-08T17:32:32.481Z,891.00
2022-12-08T17:33:02.479Z,894.00
2022-12-08T17:33:35.040Z,896.00
2022-12-08T17:34:05.022Z,904.00
2022-12-08T17:34:37.592Z,910.00
2022-12-08T17:35:07.980Z,914.00
2022-12-08T17:35:38.173Z,914.00
2022-12-08T17:36:08.134Z,916.00
2022-12-08T17:36:40.658Z,915.00
2022-12-08T17:37:13.150Z,915.00
2022-12-08T17:37:45.704Z,914.00
2022-12-08T17:38:15.707Z,913.00
2022-12-08T17:38:45.677Z,914.00
2022-12-08T17:39:19.129Z,917.00
2022-12-08T17:39:49.302Z,921.00
2022-12-08T17:40:23.665Z,924.00
2022-12-08T17:40:58.582Z,924.00
2022-12-08T17:41:26.190Z,925.00
2022-12-08T17:41:58.739Z,927.00
2022-12-08T17:42:31.266Z,931.00
2022-12-08T17:43:03.763Z,935.00
2022-12-08T17:43:36.324Z,936.00
2022-12-08T17:44:06.291Z,937.00
2022-12-08T17:44:38.804Z,937.00
2022-12-08T17:45:11.354Z,938.00
2022-12-08T17:45:41.424Z,940.00
2022-12-08T17:46:11.584Z,939.00
2022-12-08T17:46:44.299Z,941.00
2022-12-08T17:47:13.886Z,945.00
2022-12-08T17:47:46.397Z,949.00
2022-12-08T17:48:18.950Z,954.00
2022-12-08T17:48:51.505Z,957.00
2022-12-08T17:49:21.485Z,960.00
2022-12-08T17:49:54.002Z,962.00
2022-12-08T17:50:26.506Z,965.00
2022-12-08T17:50:59.020Z,967.00
2022-12-08T17:51:31.566Z,973.00
2022-12-08T17:52:01.575Z,978.00
2022-12-08T17:52:31.574Z,981.00
2022-12-08T17:53:04.140Z,982.00
2022-12-08T17:53:37.365Z,983.00
2022-12-08T17:54:05.170Z,983.00
2022-12-08T17:54:35.173Z,985.00
2022-12-08T17:55:07.690Z,989.00
2022-12-08T17:55:40.205Z,992.00
2022-12-08T17:56:12.764Z,997.00
2022-12-08T17:56:42.732Z,1001.00
2022-12-08T17:57:15.279Z,1004.00
2022-12-08T17:57:45.253Z,1005.00
2022-12-08T17:58:17.761Z,1008.00
2022-12-08T17:58:54.589Z,1012.00
2022-12-08T17:59:22.411Z,1016.00
2022-12-08T17:59:52.415Z,1018.00
2022-12-08T18:00:24.942Z,1023.00
2022-12-08T18:00:57.496Z,1027.00
2022-12-08T18:01:27.694Z,1042.00
2022-12-08T18:01:57.869Z,1056.00
2022-12-08T18:02:28.003Z,1049.00
2022-12-08T18:02:58.053Z,1040.00
2022-12-08T18:03:28.082Z,1032.00
2022-12-08T18:03:58.039Z,1027.00
2022-12-08T18:04:30.558Z,1023.00
2022-12-08T18:05:03.096Z,1025.00
2022-12-08T18:05:35.663Z,1029.00
2022-12-08T18:06:05.629Z,1030.00
2022-12-08T18:06:38.157Z,1029.00
2022-12-08T18:07:10.694Z,1033.00
2022-12-08T18:07:43.279Z,1036.00
2022-12-08T18:08:13.330Z,1041.00
2022-12-08T18:08:43.348Z,1051.00
2022-12-08T18:09:15.992Z,1060.00
2022-12-08T18:09:46.047Z,1064.00
2022-12-08T18:10:16.037Z,1069.00
2022-12-08T18:10:48.601Z,1070.00
2022-12-08T18:11:18.605Z,1067.00
2022-12-08T18:11:48.608Z,1065.00
2022-12-08T18:12:23.806Z,1063.00
2022-12-08T18:12:51.377Z,1060.00
2022-12-08T18:13:23.910Z,1056.00
2022-12-08T18:13:56.455Z,1054.00
2022-12-08T18:14:26.473Z,1050.00
2022-12-08T18:14:56.474Z,1047.00
2022-12-08T18:15:26.516Z,1046.00
2022-12-08T18:15:56.487Z,1044.00
2022-12-08T18:16:29.050Z,1039.00
2022-12-08T18:16:59.156Z,1036.00
2022-12-08T18:17:29.194Z,1033.00
2022-12-08T18:17:59.165Z,1032.00
2022-12-08T18:18:31.761Z,1029.00
2022-12-08T18:19:01.764Z,1029.00
2022-12-08T18:19:34.287Z,1029.00
2022-12-08T18:20:07.168Z,1029.00
2022-12-08T18:20:37.297Z,1030.00
2022-12-08T18:21:09.873Z,1032.00
2022-12-08T18:21:39.872Z,1032.00
2022-12-08T18:22:12.434Z,1032.00
2022-12-08T18:22:42.394Z,1031.00
2022-12-08T18:23:14.897Z,1031.00
2022-12-08T18:23:47.467Z,1030.00
2022-12-08T18:24:17.465Z,1033.00
2022-12-08T18:24:50.030Z,1034.00
2022-12-08T18:25:20.032Z,1037.00
2022-12-08T18:25:52.601Z,1039.00
2022-12-08T18:26:22.568Z,1044.00
2022-12-08T18:26:55.103Z,1049.00
2022-12-08T18:27:27.626Z,1051.00
2022-12-08T18:28:00.148Z,1053.00
2022-12-08T18:28:32.672Z,1055.00
2022-12-08T18:29:05.215Z,1063.00
2022-12-08T18:29:37.740Z,1063.00
2022-12-08T18:30:10.375Z,1067.00
2022-12-08T18:30:40.557Z,1068.00
2022-12-08T18:31:10.670Z,1072.00
2022-12-08T18:31:40.662Z,1076.00
2022-12-08T18:32:13.222Z,1061.00
2022-12-08T18:32:43.192Z,981.00
2022-12-08T18:33:15.702Z,1034.00
2022-12-08T18:33:48.207Z,1081.00
2022-12-08T18:34:20.773Z,1091.00
2022-12-08T18:34:50.785Z,1094.00
2022-12-08T18:35:23.281Z,1090.00
2022-12-08T18:35:55.843Z,1090.00
2022-12-08T18:36:25.854Z,1062.00
2022-12-08T18:36:58.410Z,828.00
2022-12-08T18:37:28.372Z,834.00
2022-12-08T18:38:00.900Z,1048.00
2022-12-08T18:38:33.405Z,1060.00
2022-12-08T18:39:10.667Z,1060.00
2022-12-08T18:39:38.362Z,1057.00
2022-12-08T18:40:10.928Z,1054.00
2022-12-08T18:40:40.929Z,1053.00
2022-12-08T18:41:10.932Z,1053.00
2022-12-08T18:41:43.495Z,1053.00
2022-12-08T18:42:13.482Z,1052.00
2022-12-08T18:42:46.014Z,1054.00
2022-12-08T18:43:15.982Z,1057.00
2022-12-08T18:43:48.527Z,1058.00
2022-12-08T18:44:18.498Z,1056.00
2022-12-08T18:44:51.017Z,1055.00
2022-12-08T18:45:23.511Z,1054.00
2022-12-08T18:45:56.064Z,1051.00
2022-12-08T18:46:26.212Z,1050.00
2022-12-08T18:46:56.319Z,1047.00
2022-12-08T18:47:26.351Z,1047.00
2022-12-08T18:47:56.339Z,1049.00
2022-12-08T18:48:28.900Z,1051.00
2022-12-08T18:48:58.905Z,1057.00
2022-12-08T18:49:31.427Z,1067.00
2022-12-08T18:50:04.368Z,1073.00
2022-12-08T18:50:34.652Z,1080.00
2022-12-08T18:51:07.213Z,1088.00
2022-12-08T18:51:37.180Z,1137.00
2022-12-08T18:52:09.709Z,1164.00
2022-12-08T18:52:42.248Z,1157.00
2022-12-08T18:53:14.805Z,1158.00
2022-12-08T18:53:44.773Z,1162.00
2022-12-08T18:54:17.272Z,1169.00
2022-12-08T18:55:05.981Z,1171.00
2022-12-08T18:55:22.193Z,1169.00
2022-12-08T18:55:54.722Z,1169.00
2022-12-08T18:56:27.249Z,1168.00
2022-12-08T18:56:59.780Z,1171.00
2022-12-08T18:57:32.303Z,1176.00
2022-12-08T18:58:04.869Z,1180.00
2022-12-08T18:58:34.865Z,1188.00
2022-12-08T18:59:07.375Z,1192.00
2022-12-08T18:59:39.902Z,1195.00
2022-12-08T19:00:12.413Z,1200.00
2022-12-08T19:00:45.005Z,1209.00
2022-12-08T19:01:15.026Z,1210.00
2022-12-08T19:01:45.196Z,1214.00
2022-12-08T19:02:15.229Z,1217.00
2022-12-08T19:02:45.324Z,1219.00
2022-12-08T19:03:15.391Z,1225.00
2022-12-08T19:04:05.124Z,1231.00
2022-12-08T19:04:33.660Z,1236.00
2022-12-08T19:04:50.729Z,1240.00
2022-12-08T19:05:20.702Z,1244.00
2022-12-08T19:05:53.213Z,1248.00
2022-12-08T19:06:25.715Z,1254.00
2022-12-08T19:06:58.343Z,1266.00
2022-12-08T19:07:28.379Z,1273.00
2022-12-08T19:08:00.972Z,1276.00
2022-12-08T19:08:31.728Z,1279.00
2022-12-08T19:09:01.863Z,1288.00
2022-12-08T19:09:34.388Z,1289.00
2022-12-08T19:10:07.333Z,1290.00
2022-12-08T19:10:37.533Z,1294.00
2022-12-08T19:11:07.515Z,1300.00
2022-12-08T19:11:40.038Z,1302.00
2022-12-08T19:12:12.586Z,1312.00
2022-12-08T19:12:45.105Z,1318.00
2022-12-08T19:13:17.627Z,1321.00
2022-12-08T19:13:50.139Z,1326.00
2022-12-08T19:14:27.457Z,1333.00
2022-12-08T19:14:55.010Z,1225.00
2022-12-08T19:15:27.594Z,1109.00
2022-12-08T19:15:57.668Z,825.00
2022-12-08T19:16:27.762Z,728.00
2022-12-08T19:16:57.764Z,728.00
2022-12-08T19:17:30.291Z,728.00
2022-12-08T19:18:02.798Z,767.00
2022-12-08T19:18:35.331Z,1047.00
2022-12-08T19:19:07.833Z,1063.00
2022-12-08T19:19:40.386Z,1079.00
2022-12-08T19:20:10.355Z,1166.00
2022-12-08T19:20:42.914Z,1169.00
2022-12-08T19:21:12.866Z,1154.00
2022-12-08T19:21:46.652Z,1142.00
2022-12-08T19:22:16.866Z,1131.00
2022-12-08T19:22:46.860Z,1120.00
2022-12-08T19:23:19.422Z,1109.00
2022-12-08T19:23:49.402Z,1101.00
2022-12-08T19:24:21.949Z,1097.00
2022-12-08T19:24:51.955Z,1096.00
2022-12-08T19:25:24.477Z,1099.00
2022-12-08T19:25:56.983Z,1106.00
2022-12-08T19:26:29.511Z,1113.00
2022-12-08T19:27:02.021Z,1120.00
2022-12-08T19:27:34.565Z,1127.00
2022-12-08T19:28:04.523Z,1138.00
2022-12-08T19:28:37.070Z,1148.00
2022-12-08T19:29:07.045Z,1153.00
2022-12-08T19:29:39.557Z,1157.00
2022-12-08T19:30:12.100Z,1162.00
2022-12-08T19:30:42.231Z,1166.00
2022-12-08T19:31:12.251Z,1166.00
2022-12-08T19:31:42.330Z,1169.00
2022-12-08T19:32:12.330Z,1171.00
2022-12-08T19:32:45.017Z,1172.00
2022-12-08T19:33:14.997Z,1173.00
2022-12-08T19:33:47.517Z,1173.00
2022-12-08T19:34:20.041Z,1174.00
2022-12-08T19:34:52.540Z,1176.00
2022-12-08T19:35:25.098Z,1181.00
2022-12-08T19:35:55.093Z,1181.00
2022-12-08T19:36:27.664Z,1180.00
2022-12-08T19:36:57.678Z,1180.00
2022-12-08T19:37:30.192Z,1183.00
2022-12-08T19:38:02.742Z,1185.00
2022-12-08T19:38:35.264Z,1188.00
2022-12-08T19:39:07.758Z,1192.00
2022-12-08T19:39:40.340Z,1194.00
2022-12-08T19:40:10.290Z,1197.00
2022-12-08T19:40:42.822Z,1198.00
2022-12-08T19:41:15.328Z,1201.00
2022-12-08T19:41:47.920Z,1202.00
2022-12-08T19:42:18.035Z,1207.00
2022-12-08T19:42:48.003Z,1208.00
2022-12-08T19:43:20.508Z,1206.00
2022-12-08T19:43:53.049Z,1206.00
2022-12-08T19:44:25.578Z,1210.00
2022-12-08T19:44:58.081Z,1214.00
2022-12-08T19:45:30.715Z,1217.00
2022-12-08T19:46:00.905Z,1219.00
2022-12-08T19:46:33.615Z,1224.00
2022-12-08T19:47:03.419Z,1227.00
2022-12-08T19:47:33.543Z,1226.00
2022-12-08T19:48:03.636Z,1231.00
2022-12-08T19:48:36.186Z,1233.00
2022-12-08T19:49:06.193Z,1238.00
2022-12-08T19:49:36.201Z,1244.00
2022-12-08T19:50:06.479Z,1247.00
2022-12-08T19:50:36.652Z,1251.00
2022-12-08T19:51:06.630Z,1253.00
2022-12-08T19:51:39.142Z,1253.00
2022-12-08T19:52:11.659Z,1257.00
2022-12-08T19:52:44.193Z,1259.00
2022-12-08T19:53:16.798Z,1262.00
2022-12-08T19:53:48.028Z,1267.00
2022-12-08T19:54:18.107Z,1269.00
2022-12-08T19:54:50.679Z,1273.00
2022-12-08T19:55:20.676Z,1275.00
2022-12-08T19:55:50.635Z,1277.00
2022-12-08T19:56:23.156Z,1280.00
2022-12-08T19:56:55.678Z,1288.00
2022-12-08T19:57:28.190Z,1288.00
2022-12-08T19:58:00.727Z,1287.00
2022-12-08T19:58:33.280Z,1285.00
2022-12-08T19:59:03.259Z,1283.00
2022-12-08T19:59:35.779Z,1071.00
2022-12-08T20:00:08.601Z,1008.00
2022-12-08T20:00:38.746Z,751.00
2022-12-08T20:01:11.405Z,709.00
2022-12-08T20:01:41.461Z,696.00
2022-12-08T20:02:11.610Z,686.00
2022-12-08T20:02:41.685Z,685.00
2022-12-08T20:03:11.752Z,718.00
2022-12-08T20:03:41.881Z,880.00
2022-12-08T20:04:11.879Z,975.00
2022-12-08T20:04:44.441Z,1027.00
2022-12-08T20:05:14.412Z,1027.00
2022-12-08T20:05:46.968Z,1025.00
2022-12-08T20:06:16.929Z,1029.00
2022-12-08T20:06:49.447Z,1034.00
2022-12-08T20:07:21.987Z,1037.00
2022-12-08T20:07:54.610Z,1039.00
2022-12-08T20:08:24.757Z,1043.00
2022-12-08T20:08:54.828Z,1049.00
2022-12-08T20:09:24.884Z,1049.00
2022-12-08T20:09:57.437Z,1052.00
2022-12-08T20:10:27.441Z,1053.00
2022-12-08T20:10:59.999Z,1054.00
2022-12-08T20:11:29.993Z,1060.00
2022-12-08T20:12:02.549Z,1062.00
2022-12-08T20:12:32.524Z,1064.00
2022-12-08T20:13:05.053Z,1066.00
2022-12-08T20:13:37.595Z,1070.00
2022-12-08T20:14:10.156Z,1075.00
2022-12-08T20:14:45.540Z,1078.00
2022-12-08T20:15:12.570Z,1079.00
2022-12-08T20:15:42.683Z,1081.00
2022-12-08T20:16:12.806Z,1087.00
2022-12-08T20:16:42.826Z,1088.00
2022-12-08T20:17:12.908Z,1093.00
2022-12-08T20:17:42.875Z,1097.00
2022-12-08T20:18:15.405Z,1098.00
2022-12-08T20:18:47.928Z,1107.00
2022-12-08T20:19:20.453Z,1111.00
2022-12-08T20:19:52.961Z,1111.00
2022-12-08T20:20:25.511Z,1110.00
2022-12-08T20:20:55.549Z,1109.00
2022-12-08T20:21:25.577Z,1108.00
2022-12-08T20:21:55.536Z,1107.00
2022-12-08T20:22:28.044Z,1104.00
2022-12-08T20:23:00.559Z,1099.00
2022-12-08T20:23:33.079Z,1095.00
2022-12-08T20:24:05.621Z,1090.00
2022-12-08T20:24:38.185Z,1085.00
2022-12-08T20:25:12.545Z,1085.00
2022-12-08T20:25:40.547Z,1086.00
2022-12-08T20:26:13.159Z,1087.00
2022-12-08T20:26:43.136Z,1090.00
2022-12-08T20:27:15.664Z,1092.00
2022-12-08T20:27:48.220Z,1092.00
2022-12-08T20:28:18.252Z,1090.00
2022-12-08T20:28:48.248Z,1092.00
2022-12-08T20:29:20.813Z,1092.00
2022-12-08T20:29:50.816Z,1095.00
2022-12-08T20:30:20.802Z,1097.00
2022-12-08T20:30:53.386Z,1099.00
2022-12-08T20:31:23.502Z,1100.00
2022-12-08T20:31:53.608Z,1100.00
2022-12-08T20:32:23.600Z,1100.00
2022-12-08T20:32:56.178Z,1102.00
2022-12-08T20:33:26.166Z,1105.00
2022-12-08T20:33:58.729Z,1103.00
2022-12-08T20:34:28.705Z,1103.00
2022-12-08T20:35:01.232Z,1103.00
2022-12-08T20:35:33.769Z,1102.00
2022-12-08T20:36:06.334Z,1101.00
2022-12-08T20:36:38.851Z,1097.00
2022-12-08T20:37:08.923Z,881.00
2022-12-08T20:37:38.857Z,809.00
2022-12-08T20:38:11.359Z,832.00
2022-12-08T20:38:43.877Z,860.00
2022-12-08T20:39:16.410Z,940.00
2022-12-08T20:39:48.968Z,971.00
2022-12-08T20:40:21.517Z,986.00
2022-12-08T20:40:51.527Z,1000.00
2022-12-08T20:41:21.509Z,1008.00
2022-12-08T20:41:54.074Z,1008.00
2022-12-08T20:42:24.085Z,1005.00
2022-12-08T20:42:54.048Z,1006.00
2022-12-08T20:43:26.624Z,1006.00
2022-12-08T20:43:56.598Z,1008.00
2022-12-08T20:44:29.112Z,1012.00
2022-12-08T20:45:01.713Z,1012.00
2022-12-08T20:45:31.696Z,1018.00
2022-12-08T20:46:04.314Z,1020.00
2022-12-08T20:46:34.502Z,1023.00
2022-12-08T20:47:04.625Z,1024.00
2022-12-08T20:47:34.662Z,1025.00
2022-12-08T20:48:04.667Z,1027.00
2022-12-08T20:48:37.285Z,1030.00
2022-12-08T20:49:07.234Z,1027.00
2022-12-08T20:49:40.009Z,1026.00
2022-12-08T20:50:10.470Z,1024.00
2022-12-08T20:50:40.978Z,1024.00
2022-12-08T20:51:10.993Z,1024.00
2022-12-08T20:51:41.174Z,1025.00
2022-12-08T20:52:11.304Z,1027.00
2022-12-08T20:52:41.273Z,1027.00
2022-12-08T20:53:13.858Z,1029.00
2022-12-08T20:53:44.051Z,1030.00
2022-12-08T20:54:14.186Z,1030.00
2022-12-08T20:54:44.272Z,1031.00
2022-12-08T20:55:14.311Z,1033.00
2022-12-08T20:55:44.294Z,1034.00
2022-12-08T20:56:16.826Z,1035.00
2022-12-08T20:56:48.717Z,1036.00
2022-12-08T20:57:19.111Z,1040.00
2022-12-08T20:57:49.149Z,1041.00
2022-12-08T20:58:19.181Z,1043.00
2022-12-08T20:58:49.199Z,1043.00
2022-12-08T20:59:19.188Z,1044.00
2022-12-08T20:59:51.755Z,1044.00
2022-12-08T21:00:21.824Z,1043.00
2022-12-08T21:00:51.859Z,1047.00
2022-12-08T21:01:22.113Z,1048.00
2022-12-08T21:01:52.248Z,1051.00
2022-12-08T21:02:22.510Z,1052.00
2022-12-08T21:02:56.486Z,1054.00
2022-12-08T21:03:24.835Z,1056.00
2022-12-08T21:03:55.208Z,1059.00
2022-12-08T21:04:25.781Z,1060.00
2022-12-08T21:04:56.002Z,1060.00
2022-12-08T21:05:26.392Z,1059.00
2022-12-08T21:05:56.504Z,1058.00
2022-12-08T21:06:26.504Z,1058.00
2022-12-08T21:06:56.684Z,1059.00
2022-12-08T21:07:26.680Z,1058.00
2022-12-08T21:07:59.452Z,1060.00
2022-12-08T21:08:29.548Z,1062.00
2022-12-08T21:08:59.765Z,1064.00
2022-12-08T21:09:30.182Z,1066.00
2022-12-08T21:10:00.294Z,1067.00
2022-12-08T21:10:30.303Z,1068.00
2022-12-08T21:11:02.934Z,1069.00
2022-12-08T21:11:32.966Z,1070.00
2022-12-08T21:12:02.913Z,1070.00
2022-12-08T21:12:35.546Z,1072.00
2022-12-08T21:13:05.707Z,1067.00
2022-12-08T21:13:35.717Z,1066.00
2022-12-08T21:14:08.278Z,1064.00
2022-12-08T21:14:38.232Z,1062.00
2022-12-08T21:15:08.451Z,1063.00
2022-12-08T21:15:38.501Z,1064.00
2022-12-08T21:16:14.681Z,1067.00
2022-12-08T21:16:39.785Z,1069.00
2022-12-08T21:17:10.066Z,1070.00
2022-12-08T21:17:40.221Z,1071.00
2022-12-08T21:18:10.693Z,1070.00
2022-12-08T21:18:40.940Z,1071.00
2022-12-08T21:19:11.101Z,1074.00
2022-12-08T21:19:41.175Z,1079.00
2022-12-08T21:20:11.791Z,1081.00
2022-12-08T21:20:42.018Z,1081.00
2022-12-08T21:21:12.000Z,1083.00
2022-12-08T21:21:42.214Z,1084.00
2022-12-08T21:22:12.254Z,1086.00
2022-12-08T21:22:42.332Z,1091.00
2022-12-08T21:23:12.375Z,1094.00
2022-12-08T21:23:42.468Z,1096.00
2022-12-08T21:24:12.468Z,1099.00
2022-12-08T21:24:45.005Z,1102.00
2022-12-08T21:25:17.739Z,1106.00
2022-12-08T21:25:47.897Z,1108.00
2022-12-08T21:26:17.941Z,1106.00
2022-12-08T21:26:48.037Z,1108.00
2022-12-08T21:27:18.142Z,1106.00
2022-12-08T21:27:48.086Z,1104.00
2022-12-08T21:28:20.619Z,1102.00
2022-12-08T21:28:53.174Z,1102.00
2022-12-08T21:29:25.713Z,1101.00
2022-12-08T21:29:55.843Z,1102.00
2022-12-08T21:30:26.018Z,1103.00
2022-12-08T21:30:56.214Z,1105.00
2022-12-08T21:31:26.563Z,1107.00
2022-12-08T21:31:56.687Z,1111.00